createdAt,value
2018-07-10T00:02:13.750Z,2.17
2018-07-10T00:04:37.010Z,4.67
2018-07-10T00:07:05.467Z,2.50
2018-07-10T00:09:36.282Z,3.50
2018-07-10T00:11:48.735Z,2.33
2018-07-10T00:14:01.270Z,2.97
2018-07-10T00:16:13.633Z,2.40
2018-07-10T00:18:26.015Z,5.30
2018-07-10T00:20:38.482Z,2.23
2018-07-10T00:22:51.009Z,2.20
2018-07-10T00:25:03.410Z,4.50
2018-07-10T00:27:15.791Z,2.90
2018-07-10T00:29:28.206Z,4.70
2018-07-10T00:31:40.738Z,2.50
2018-07-10T00:33:53.190Z,2.80
2018-07-10T00:36:05.524Z,2.60
2018-07-10T00:38:29.427Z,2.70
2018-07-10T00:40:41.970Z,3.37
2018-07-10T00:42:54.475Z,2.77
2018-07-10T00:45:06.882Z,3.23
2018-07-10T00:47:19.218Z,2.10
2018-07-10T00:49:31.579Z,2.23
2018-07-10T00:51:43.975Z,4.60
2018-07-10T00:53:56.393Z,3.33
2018-07-10T00:56:08.808Z,2.47
2018-07-10T00:58:21.234Z,3.20
2018-07-10T01:00:34.842Z,2.63
2018-07-10T01:02:47.306Z,3.53
2018-07-10T01:04:59.678Z,3.80
2018-07-10T01:07:12.131Z,3.77
2018-07-10T01:09:24.625Z,5.50
2018-07-10T01:11:37.015Z,2.60
2018-07-10T01:13:50.310Z,2.87
2018-07-10T01:16:02.743Z,3.17
2018-07-10T01:18:22.186Z,3.97
2018-07-10T01:20:34.662Z,3.83
2018-07-10T01:22:47.250Z,2.90
2018-07-10T01:24:59.702Z,3.10
2018-07-10T01:27:12.358Z,2.50
2018-07-10T01:29:30.434Z,3.97
2018-07-10T01:31:44.490Z,2.60
2018-07-10T01:33:57.151Z,6.80
2018-07-10T01:36:09.575Z,2.67
2018-07-10T01:38:22.291Z,3.43
2018-07-10T01:40:34.782Z,2.53
2018-07-10T01:42:47.226Z,3.40
2018-07-10T01:44:59.760Z,3.63
2018-07-10T01:47:12.202Z,2.60
2018-07-10T01:49:24.640Z,3.80
2018-07-10T01:51:37.091Z,3.27
2018-07-10T01:53:50.328Z,4.60
2018-07-10T01:56:02.656Z,3.27
2018-07-10T01:58:15.216Z,3.60
2018-07-10T02:00:40.118Z,2.80
2018-07-10T02:02:52.567Z,2.90
2018-07-10T02:05:05.034Z,3.97
2018-07-10T02:07:17.386Z,2.77
2018-07-10T02:09:29.918Z,3.97
2018-07-10T02:11:42.298Z,3.97
2018-07-10T02:13:54.724Z,3.00
2018-07-10T02:16:07.079Z,2.53
2018-07-10T02:18:20.087Z,8.87
2018-07-10T02:21:36.787Z,3.20
2018-07-10T02:23:49.331Z,3.37
2018-07-10T02:26:02.107Z,4.13
2018-07-10T02:28:14.510Z,4.17
2018-07-10T02:30:26.902Z,4.90
2018-07-10T02:32:39.316Z,3.57
2018-07-10T02:34:51.813Z,4.97
2018-07-10T02:37:04.887Z,4.27
2018-07-10T02:39:18.027Z,3.47
2018-07-10T02:41:30.429Z,5.03
2018-07-10T02:43:45.602Z,4.47
2018-07-10T02:45:58.812Z,2.53
2018-07-10T02:48:11.321Z,3.87
2018-07-10T02:50:23.843Z,3.73
2018-07-10T02:52:40.415Z,3.13
2018-07-10T02:54:52.986Z,3.77
2018-07-10T02:57:08.546Z,2.43
2018-07-10T02:59:21.689Z,4.97
2018-07-10T03:01:34.227Z,3.10
2018-07-10T03:03:47.682Z,3.60
2018-07-10T03:06:00.110Z,2.40
2018-07-10T03:08:12.562Z,3.40
2018-07-10T03:10:25.078Z,3.73
2018-07-10T03:12:39.393Z,2.80
2018-07-10T03:14:51.822Z,4.27
2018-07-10T03:17:04.260Z,4.17
2018-07-10T03:19:17.044Z,4.10
2018-07-10T03:21:29.419Z,6.90
2018-07-10T03:23:41.867Z,5.17
2018-07-10T03:25:54.260Z,4.53
2018-07-10T03:28:06.732Z,6.53
2018-07-10T03:30:19.192Z,2.80
2018-07-10T03:32:32.046Z,4.37
2018-07-10T03:34:44.450Z,4.83
2018-07-10T03:36:57.114Z,4.50
2018-07-10T03:39:09.546Z,4.17
2018-07-10T03:41:21.998Z,4.17
2018-07-10T03:43:34.411Z,6.77
2018-07-10T03:45:47.068Z,4.77
2018-07-10T03:47:59.666Z,7.30
2018-07-10T03:50:12.210Z,3.87
2018-07-10T03:52:29.194Z,2.63
2018-07-10T03:54:42.419Z,3.10
2018-07-10T03:56:54.926Z,4.90
2018-07-10T03:59:07.466Z,4.40
2018-07-10T04:01:19.962Z,3.10
2018-07-10T04:03:33.562Z,2.77
2018-07-10T04:05:46.002Z,3.60
2018-07-10T04:07:58.419Z,3.30
2018-07-10T04:10:12.423Z,4.23
2018-07-10T04:12:30.899Z,5.17
2018-07-10T04:14:44.361Z,3.43
2018-07-10T04:16:57.371Z,3.60
2018-07-10T04:19:09.786Z,3.17
2018-07-10T04:21:26.015Z,3.33
2018-07-10T04:23:38.890Z,2.90
2018-07-10T04:25:53.445Z,3.67
2018-07-10T04:28:11.498Z,4.07
2018-07-10T04:30:34.228Z,5.80
2018-07-10T04:32:46.726Z,3.53
2018-07-10T04:34:59.447Z,3.67
2018-07-10T04:37:12.498Z,3.40
2018-07-10T04:39:25.203Z,3.93
2018-07-10T04:41:41.202Z,4.17
2018-07-10T04:43:58.989Z,3.40
2018-07-10T04:46:11.999Z,4.30
2018-07-10T04:48:34.459Z,4.97
2018-07-10T04:50:52.809Z,3.27
2018-07-10T04:53:08.722Z,4.57
2018-07-10T04:55:21.194Z,3.33
2018-07-10T04:57:40.309Z,3.33
2018-07-10T04:59:52.733Z,3.10
2018-07-10T05:02:05.937Z,3.43
2018-07-10T05:04:18.645Z,4.87
2018-07-10T05:06:33.834Z,4.30
2018-07-10T05:08:46.812Z,3.83
2018-07-10T05:10:59.429Z,2.90
2018-07-10T05:13:11.882Z,4.63
2018-07-10T05:15:24.290Z,3.13
2018-07-10T05:17:36.699Z,3.83
2018-07-10T05:19:49.129Z,3.13
2018-07-10T05:22:01.971Z,2.13
2018-07-10T05:24:14.714Z,3.90
2018-07-10T05:26:27.258Z,2.70
2018-07-10T05:28:39.738Z,3.03
2018-07-10T05:30:57.470Z,4.23
2018-07-10T05:33:11.422Z,3.90
2018-07-10T05:35:23.916Z,3.93
2018-07-10T05:37:37.331Z,4.50
2018-07-10T05:39:49.830Z,3.37
2018-07-10T05:42:02.252Z,3.50
2018-07-10T05:44:17.802Z,4.20
2018-07-10T05:46:30.257Z,4.30
2018-07-10T05:48:51.587Z,4.27
2018-07-10T05:51:04.015Z,3.63
2018-07-10T05:53:16.426Z,4.07
2018-07-10T05:55:30.007Z,4.30
2018-07-10T05:57:42.703Z,4.03
2018-07-10T05:59:55.429Z,4.07
2018-07-10T06:02:07.819Z,4.17
2018-07-10T06:04:20.281Z,3.33
2018-07-10T06:06:32.775Z,5.50
2018-07-10T06:08:45.564Z,5.70
2018-07-10T06:10:58.043Z,4.47
2018-07-10T06:13:10.428Z,4.73
2018-07-10T06:15:22.890Z,4.20
2018-07-10T06:17:35.323Z,6.43
2018-07-10T06:19:47.802Z,3.40
2018-07-10T06:22:00.633Z,5.87
2018-07-10T06:24:21.650Z,5.33
2018-07-10T06:26:37.806Z,5.37
2018-07-10T06:28:56.444Z,4.77
2018-07-10T06:31:13.339Z,5.33
2018-07-10T06:33:26.851Z,3.20
2018-07-10T06:35:46.242Z,5.07
2018-07-10T06:37:58.914Z,4.87
2018-07-10T06:40:11.351Z,6.23
2018-07-10T06:42:28.350Z,5.43
2018-07-10T06:44:40.862Z,3.93
2018-07-10T06:46:57.114Z,4.50
2018-07-10T06:49:19.658Z,3.93
2018-07-10T06:51:32.183Z,5.47
2018-07-10T06:53:46.436Z,5.23
2018-07-10T06:55:59.041Z,4.47
2018-07-10T06:58:11.454Z,5.60
2018-07-10T07:00:24.785Z,5.17
2018-07-10T07:02:38.090Z,6.70
2018-07-10T07:04:50.649Z,5.63
2018-07-10T07:07:03.440Z,8.60
2018-07-10T07:09:15.913Z,5.73
2018-07-10T07:11:28.406Z,4.57
2018-07-10T07:13:40.737Z,5.07
2018-07-10T07:15:53.178Z,5.53
2018-07-10T07:18:06.541Z,7.67
2018-07-10T07:20:19.605Z,5.03
2018-07-10T07:22:33.009Z,5.27
2018-07-10T07:24:45.431Z,5.63
2018-07-10T07:26:57.915Z,5.67
2018-07-10T07:29:11.229Z,7.23
2018-07-10T07:31:23.689Z,5.77
2018-07-10T07:33:36.105Z,5.93
2018-07-10T07:35:48.546Z,5.10
2018-07-10T07:38:00.982Z,7.57
2018-07-10T07:40:13.587Z,8.13
2018-07-10T07:42:26.775Z,8.40
2018-07-10T07:44:39.276Z,11.07
2018-07-10T07:46:51.710Z,8.50
2018-07-10T07:49:04.206Z,7.10
2018-07-10T07:51:16.598Z,9.50
2018-07-10T07:53:29.478Z,11.00
2018-07-10T07:55:43.029Z,9.00
2018-07-10T07:57:55.601Z,9.03
2018-07-10T08:00:08.051Z,9.13
2018-07-10T08:02:21.342Z,10.60
2018-07-10T08:04:33.769Z,8.63
2018-07-10T08:06:46.455Z,10.47
2018-07-10T08:08:58.946Z,10.40
2018-07-10T08:11:11.454Z,8.97
2018-07-10T08:13:23.909Z,9.00
2018-07-10T08:15:36.562Z,9.60
2018-07-10T08:17:48.919Z,8.63
2018-07-10T08:20:01.376Z,10.17
2018-07-10T08:22:13.857Z,10.37
2018-07-10T08:24:26.257Z,12.03
2018-07-10T08:26:39.617Z,7.10
2018-07-10T08:28:52.013Z,12.13
2018-07-10T08:31:04.538Z,8.87
2018-07-10T08:33:17.006Z,9.07
2018-07-10T08:35:29.453Z,9.63
2018-07-10T08:37:41.934Z,9.03
2018-07-10T08:39:54.353Z,9.93
2018-07-10T08:42:06.827Z,10.07
2018-07-10T08:44:20.362Z,8.53
2018-07-10T08:46:32.779Z,9.50
2018-07-10T08:48:46.650Z,10.83
2018-07-10T08:50:59.224Z,9.10
2018-07-10T08:53:11.946Z,9.07
2018-07-10T08:55:24.463Z,9.40
2018-07-10T08:57:37.029Z,8.50
2018-07-10T08:59:49.605Z,7.47
2018-07-10T09:02:03.162Z,9.23
2018-07-10T09:04:16.489Z,8.70
2018-07-10T09:06:28.942Z,9.60
2018-07-10T09:08:41.423Z,10.43
2018-07-10T09:10:53.817Z,14.07
2018-07-10T09:13:06.233Z,8.53
2018-07-10T09:15:18.674Z,12.27
2018-07-10T09:17:31.163Z,8.47
2018-07-10T09:19:43.574Z,10.73
2018-07-10T09:22:06.870Z,10.80
2018-07-10T09:24:19.631Z,9.63
2018-07-10T09:26:33.257Z,7.93
2018-07-10T09:28:46.650Z,10.07
2018-07-10T09:30:59.707Z,9.90
2018-07-10T09:33:12.158Z,9.50
2018-07-10T09:35:24.753Z,9.90
2018-07-10T09:37:42.726Z,8.83
2018-07-10T09:40:00.734Z,8.90
2018-07-10T09:42:13.130Z,12.40
2018-07-10T09:44:25.869Z,13.73
2018-07-10T09:46:38.334Z,12.97
2018-07-10T09:48:50.786Z,15.87
2018-07-10T09:51:03.188Z,14.57
2018-07-10T09:53:16.027Z,17.63
2018-07-10T09:55:28.703Z,19.20
2018-07-10T09:57:42.478Z,16.23
2018-07-10T09:59:55.134Z,19.77
2018-07-10T10:02:13.286Z,18.77
2018-07-10T10:04:25.927Z,17.00
2018-07-10T10:06:38.299Z,18.20
2018-07-10T10:08:50.683Z,16.63
2018-07-10T10:11:03.228Z,13.37
2018-07-10T10:13:16.030Z,12.90
2018-07-10T10:15:32.545Z,13.57
2018-07-10T10:17:45.462Z,13.90
2018-07-10T10:19:58.713Z,13.33
2018-07-10T10:22:12.243Z,12.80
2018-07-10T10:24:24.724Z,12.97
2018-07-10T10:26:37.178Z,14.67
2018-07-10T10:28:49.621Z,15.17
2018-07-10T10:31:01.999Z,12.17
2018-07-10T10:33:14.426Z,10.37
2018-07-10T10:35:26.923Z,9.73
2018-07-10T10:37:39.358Z,9.83
2018-07-10T10:39:53.453Z,9.13
2018-07-10T10:42:06.250Z,11.93
2018-07-10T10:44:18.661Z,13.20
2018-07-10T10:46:31.807Z,9.60
2018-07-10T10:48:44.257Z,11.10
2018-07-10T10:50:56.642Z,13.20
2018-07-10T10:53:09.142Z,14.47
2018-07-10T10:55:21.614Z,13.63
2018-07-10T10:57:37.089Z,9.63
2018-07-10T10:59:51.134Z,10.47
2018-07-10T11:02:03.626Z,11.80
2018-07-10T11:04:16.116Z,12.27
2018-07-10T11:06:29.549Z,10.37
2018-07-10T11:08:41.982Z,11.83
2018-07-10T11:10:54.475Z,12.97
2018-07-10T11:13:07.506Z,12.87
2018-07-10T11:15:20.632Z,14.23
2018-07-10T11:17:38.739Z,10.93
2018-07-10T11:20:12.932Z,10.30
2018-07-10T11:22:25.415Z,11.10
2018-07-10T11:24:47.588Z,9.90
2018-07-10T11:27:00.530Z,10.60
2018-07-10T11:29:13.902Z,9.37
2018-07-10T11:31:26.407Z,13.57
2018-07-10T11:33:39.046Z,10.93
2018-07-10T11:35:51.462Z,10.30
2018-07-10T11:38:11.030Z,11.23
2018-07-10T11:40:23.555Z,11.13
2018-07-10T11:42:36.130Z,14.97
2018-07-10T11:44:48.598Z,11.70
2018-07-10T11:47:00.995Z,12.00
2018-07-10T11:49:13.412Z,10.57
2018-07-10T11:51:25.844Z,8.47
2018-07-10T11:53:38.550Z,8.73
2018-07-10T11:55:51.100Z,8.23
2018-07-10T11:58:04.475Z,9.73
2018-07-10T12:00:17.397Z,9.70
2018-07-10T12:02:44.737Z,8.00
2018-07-10T12:04:57.498Z,7.87
2018-07-10T12:07:09.920Z,7.87
2018-07-10T12:09:22.394Z,6.43
2018-07-10T12:11:34.905Z,8.23
2018-07-10T12:13:47.352Z,6.73
2018-07-10T12:15:59.734Z,7.43
2018-07-10T12:18:14.239Z,6.80
2018-07-10T12:20:44.957Z,6.23
2018-07-10T12:22:58.737Z,8.63
2018-07-10T12:25:11.865Z,8.33
2018-07-10T12:27:24.254Z,9.27
2018-07-10T12:29:36.762Z,7.47
2018-07-10T12:31:49.210Z,9.27
2018-07-10T12:34:01.810Z,7.60
2018-07-10T12:36:14.172Z,7.17
2018-07-10T12:38:26.912Z,7.10
2018-07-10T12:40:39.392Z,9.07
2018-07-10T12:42:52.807Z,7.43
2018-07-10T12:45:05.440Z,8.33
2018-07-10T12:47:18.023Z,7.87
2018-07-10T12:49:30.506Z,9.33
2018-07-10T12:51:42.942Z,7.43
2018-07-10T12:53:55.406Z,9.87
2018-07-10T12:56:07.971Z,10.33
2018-07-10T12:58:20.377Z,7.70
2018-07-10T13:00:35.488Z,7.20
2018-07-10T13:02:51.135Z,9.07
2018-07-10T13:05:03.638Z,8.93
2018-07-10T13:07:16.050Z,9.80
2018-07-10T13:09:28.930Z,8.03
2018-07-10T13:11:41.405Z,7.30
2018-07-10T13:13:53.889Z,7.50
2018-07-10T13:16:06.453Z,7.60
2018-07-10T13:18:21.007Z,11.60
2018-07-10T13:20:33.494Z,8.33
2018-07-10T13:22:45.943Z,8.50
2018-07-10T13:24:58.774Z,6.80
2018-07-10T13:27:11.381Z,8.13
2018-07-10T13:29:23.872Z,7.57
2018-07-10T13:31:36.436Z,7.10
2018-07-10T13:33:48.906Z,6.93
2018-07-10T13:36:01.294Z,10.97
2018-07-10T13:38:15.542Z,6.37
2018-07-10T13:40:27.994Z,6.10
2018-07-10T13:42:45.309Z,6.53
2018-07-10T13:44:57.726Z,6.10
2018-07-10T13:47:10.090Z,8.73
2018-07-10T13:49:22.545Z,5.47
2018-07-10T13:51:34.934Z,5.90
2018-07-10T13:53:47.378Z,6.90
2018-07-10T13:55:59.794Z,6.17
2018-07-10T13:58:16.274Z,7.63
2018-07-10T14:00:29.155Z,8.57
2018-07-10T14:02:41.731Z,8.07
2018-07-10T14:04:54.422Z,9.83
2018-07-10T14:07:06.890Z,5.90
2018-07-10T14:09:19.365Z,7.20
2018-07-10T14:11:31.915Z,4.90
2018-07-10T14:13:44.282Z,6.40
2018-07-10T14:15:57.694Z,6.70
2018-07-10T14:18:10.378Z,5.60
2018-07-10T14:20:22.950Z,6.13
2018-07-10T14:22:35.607Z,7.90
2018-07-10T14:24:48.066Z,4.20
2018-07-10T14:27:00.522Z,7.50
2018-07-10T14:29:12.983Z,4.53
2018-07-10T14:31:25.440Z,4.20
2018-07-10T14:33:37.937Z,7.70
2018-07-10T14:35:50.369Z,5.20
2018-07-10T14:38:05.464Z,4.30
2018-07-10T14:40:18.167Z,6.67
2018-07-10T14:42:30.894Z,11.50
2018-07-10T14:44:43.562Z,3.50
2018-07-10T14:46:56.012Z,8.50
2018-07-10T14:49:08.677Z,6.27
2018-07-10T14:51:27.119Z,3.23
2018-07-10T14:53:39.636Z,3.63
2018-07-10T14:55:52.124Z,3.77
2018-07-10T14:58:04.845Z,5.20
2018-07-10T15:00:17.350Z,3.27
2018-07-10T15:02:29.938Z,4.63
2018-07-10T15:04:42.362Z,6.60
2018-07-10T15:06:54.833Z,3.57
2018-07-10T15:09:08.499Z,4.47
2018-07-10T15:11:20.854Z,3.07
2018-07-10T15:13:44.790Z,4.30
2018-07-10T15:16:01.335Z,4.90
2018-07-10T15:18:19.318Z,5.17
2018-07-10T15:20:31.750Z,4.27
2018-07-10T15:22:44.206Z,3.90
2018-07-10T15:24:56.643Z,4.63
2018-07-10T15:27:09.049Z,4.90
2018-07-10T15:29:27.600Z,4.23
2018-07-10T15:31:40.137Z,3.07
2018-07-10T15:33:52.591Z,2.40
2018-07-10T15:36:05.169Z,4.97
2018-07-10T15:38:17.661Z,4.30
2018-07-10T15:40:30.107Z,3.00
2018-07-10T15:42:42.793Z,4.20
2018-07-10T15:44:55.403Z,3.50
2018-07-10T15:47:07.900Z,2.77
2018-07-10T15:49:20.300Z,3.73
2018-07-10T15:51:32.713Z,3.20
2018-07-10T15:53:45.167Z,2.37
2018-07-10T15:55:57.625Z,4.53
2018-07-10T15:58:10.082Z,4.43
2018-07-10T16:00:22.571Z,3.17
2018-07-10T16:02:35.131Z,3.40
2018-07-10T16:04:48.018Z,2.50
2018-07-10T16:07:00.462Z,2.57
2018-07-10T16:09:16.667Z,4.20
2018-07-10T16:11:29.277Z,4.53
2018-07-10T16:13:43.527Z,4.47
2018-07-10T16:15:58.547Z,3.30
2018-07-10T16:18:11.343Z,3.03
2018-07-10T16:20:23.782Z,5.67
2018-07-10T16:22:40.619Z,4.93
2018-07-10T16:24:56.836Z,2.97
2018-07-10T16:27:09.738Z,3.20
2018-07-10T16:29:23.366Z,3.13
2018-07-10T16:31:39.045Z,2.77
2018-07-10T16:33:51.443Z,2.50
2018-07-10T16:36:07.012Z,2.93
2018-07-10T16:38:19.619Z,3.13
2018-07-10T16:40:32.035Z,2.97
2018-07-10T16:42:46.619Z,3.27
2018-07-10T16:44:59.142Z,5.17
2018-07-10T16:47:17.326Z,3.13
2018-07-10T16:49:36.546Z,2.60
2018-07-10T16:52:06.059Z,5.47
2018-07-10T16:54:18.537Z,3.07
2018-07-10T16:56:30.956Z,2.47
2018-07-10T16:58:43.443Z,2.97
2018-07-10T17:00:56.802Z,3.93
2018-07-10T17:03:09.803Z,3.10
2018-07-10T17:05:22.625Z,3.33
2018-07-10T17:07:35.080Z,3.57
2018-07-10T17:09:47.493Z,3.60
2018-07-10T17:12:00.067Z,3.20
2018-07-10T17:14:12.506Z,3.93
2018-07-10T17:16:26.873Z,3.83
2018-07-10T17:18:39.581Z,4.17
2018-07-10T17:20:52.118Z,5.30
2018-07-10T17:23:04.576Z,2.50
2018-07-10T17:25:17.283Z,5.60
2018-07-10T17:27:35.030Z,4.20
2018-07-10T17:29:47.526Z,4.27
2018-07-10T17:31:59.994Z,2.93
2018-07-10T17:34:12.512Z,4.07
2018-07-10T17:36:25.138Z,4.13
2018-07-10T17:38:38.546Z,3.33
2018-07-10T17:40:50.987Z,4.07
2018-07-10T17:43:03.496Z,3.07
2018-07-10T17:45:17.413Z,3.20
2018-07-10T17:47:30.050Z,3.27
2018-07-10T17:49:43.203Z,3.23
2018-07-10T17:51:56.042Z,3.17
2018-07-10T17:54:08.632Z,3.90
2018-07-10T17:56:21.041Z,3.97
2018-07-10T17:58:33.530Z,3.27
2018-07-10T18:00:46.080Z,4.50
2018-07-10T18:02:58.539Z,3.83
2018-07-10T18:05:11.000Z,4.53
2018-07-10T18:07:23.739Z,3.60
2018-07-10T18:09:36.130Z,3.20
2018-07-10T18:11:48.617Z,4.30
2018-07-10T18:14:01.002Z,4.87
2018-07-10T18:16:13.491Z,3.10
2018-07-10T18:18:26.562Z,3.37
2018-07-10T18:20:39.068Z,3.80
2018-07-10T18:22:51.565Z,3.10
2018-07-10T18:25:03.962Z,2.83
2018-07-10T18:27:16.614Z,3.63
2018-07-10T18:29:29.045Z,2.80
2018-07-10T18:31:41.550Z,3.67
2018-07-10T18:33:54.054Z,3.30
2018-07-10T18:36:06.468Z,3.30
2018-07-10T18:38:18.864Z,3.10
2018-07-10T18:40:31.764Z,4.73
2018-07-10T18:42:44.224Z,3.27
2018-07-10T18:44:56.790Z,3.37
2018-07-10T18:47:09.707Z,3.50
2018-07-10T18:49:22.022Z,3.07
2018-07-10T18:51:35.807Z,4.13
2018-07-10T18:53:48.971Z,3.13
2018-07-10T18:56:04.382Z,3.57
2018-07-10T18:58:28.229Z,4.70
2018-07-10T19:00:55.178Z,5.27
2018-07-10T19:03:09.554Z,3.60
2018-07-10T19:05:22.074Z,6.47
2018-07-10T19:07:39.214Z,5.33
2018-07-10T19:09:51.693Z,3.20
2018-07-10T19:12:07.011Z,3.10
2018-07-10T19:14:19.530Z,3.00
2018-07-10T19:16:32.047Z,2.70
2018-07-10T19:18:44.662Z,4.40
2018-07-10T19:21:06.728Z,3.10
2018-07-10T19:23:30.122Z,3.33
2018-07-10T19:25:42.774Z,4.47
2018-07-10T19:27:57.270Z,3.30
2018-07-10T19:30:10.035Z,3.77
2018-07-10T19:32:22.778Z,3.40
2018-07-10T19:34:36.300Z,3.20
2018-07-10T19:36:48.806Z,3.27
2018-07-10T19:39:03.069Z,3.37
2018-07-10T19:41:16.068Z,4.80
2018-07-10T19:43:28.759Z,4.87
2018-07-10T19:45:42.361Z,3.77
2018-07-10T19:47:56.801Z,3.67
2018-07-10T19:50:18.020Z,3.23
2018-07-10T19:52:30.515Z,2.90
2018-07-10T19:54:43.241Z,4.10
2018-07-10T19:56:55.634Z,6.73
2018-07-10T19:59:09.916Z,3.37
2018-07-10T20:01:32.462Z,3.67
2018-07-10T20:04:19.455Z,3.50
2018-07-10T20:06:42.243Z,5.47
2018-07-10T20:08:59.854Z,8.30
2018-07-10T20:11:12.406Z,5.07
2018-07-10T20:13:35.667Z,5.23
2018-07-10T20:15:58.887Z,3.53
2018-07-10T20:18:37.056Z,5.90
2018-07-10T20:23:01.544Z,3.80
2018-07-10T20:27:25.206Z,3.47
2018-07-10T20:30:02.921Z,3.60
2018-07-10T20:32:19.308Z,5.20
2018-07-10T20:35:35.226Z,5.97
2018-07-10T20:37:48.402Z,6.33
2018-07-10T20:40:01.110Z,5.50
2018-07-10T20:42:13.680Z,4.93
2018-07-10T20:44:26.538Z,3.87
2018-07-10T20:46:43.287Z,5.73
2018-07-10T20:49:00.286Z,4.60
2018-07-10T20:51:13.462Z,4.63
2018-07-10T20:53:34.842Z,4.17
2018-07-10T20:55:53.265Z,3.73
2018-07-10T20:58:09.316Z,4.37
2018-07-10T21:00:22.082Z,3.60
2018-07-10T21:02:56.914Z,4.03
2018-07-10T21:05:12.160Z,4.30
2018-07-10T21:07:29.138Z,4.27
2018-07-10T21:09:52.322Z,5.10
2018-07-10T21:12:10.232Z,4.33
2018-07-10T21:14:37.213Z,4.60
2018-07-10T21:16:58.876Z,4.30
2018-07-10T21:19:24.242Z,4.50
2018-07-10T21:22:01.133Z,4.07
2018-07-10T21:24:22.335Z,4.07
2018-07-10T21:26:41.926Z,4.23
2018-07-10T21:28:55.611Z,4.40
2018-07-10T21:32:20.257Z,5.47
2018-07-10T21:34:42.259Z,5.10
2018-07-10T21:36:59.790Z,4.23
2018-07-10T21:39:16.632Z,5.27
2018-07-10T21:42:12.903Z,4.20
2018-07-10T21:44:38.777Z,4.60
2018-07-10T21:46:57.555Z,4.47
2018-07-10T21:50:14.755Z,4.57
2018-07-10T21:52:27.365Z,4.27
2018-07-10T21:54:39.997Z,3.90
2018-07-10T21:56:52.405Z,4.63
2018-07-10T21:59:05.094Z,4.90
2018-07-10T22:01:38.986Z,3.77
2018-07-10T22:03:51.472Z,4.03
2018-07-10T22:06:03.901Z,4.03
2018-07-10T22:08:16.326Z,4.33
2018-07-10T22:10:28.834Z,4.10
2018-07-10T22:12:43.578Z,4.00
2018-07-10T22:14:56.145Z,3.90
2018-07-10T22:17:16.217Z,4.20
2018-07-10T22:19:29.061Z,3.90
2018-07-10T22:21:41.818Z,4.10
2018-07-10T22:23:54.290Z,5.57
2018-07-10T22:26:06.683Z,4.30
2018-07-10T22:28:19.184Z,4.67
2018-07-10T22:30:37.346Z,4.20
2018-07-10T22:32:56.175Z,3.73
2018-07-10T22:35:08.786Z,3.97
2018-07-10T22:37:21.362Z,4.47
2018-07-10T22:39:33.810Z,4.33
2018-07-10T22:41:46.699Z,4.27
2018-07-10T22:44:00.214Z,5.23
2018-07-10T22:46:12.748Z,3.87
2018-07-10T22:48:25.229Z,3.43
2018-07-10T22:50:37.637Z,3.43
2018-07-10T22:52:53.094Z,3.47
2018-07-10T22:55:05.639Z,2.77
2018-07-10T22:57:18.064Z,3.43
2018-07-10T22:59:30.584Z,3.00
2018-07-10T23:01:42.962Z,2.77
2018-07-10T23:03:55.627Z,3.77
2018-07-10T23:06:08.030Z,2.23
2018-07-10T23:08:27.309Z,2.30
2018-07-10T23:10:39.721Z,3.03
2018-07-10T23:12:52.158Z,2.40
2018-07-10T23:15:04.675Z,2.03
2018-07-10T23:17:17.055Z,2.10
2018-07-10T23:19:29.544Z,2.60
2018-07-10T23:21:42.030Z,2.90
2018-07-10T23:23:54.394Z,1.83
2018-07-10T23:26:07.035Z,2.43
2018-07-10T23:28:20.037Z,2.47
2018-07-10T23:30:38.022Z,2.03
2018-07-10T23:32:50.470Z,2.60
2018-07-10T23:35:02.938Z,2.63
2018-07-10T23:37:16.011Z,2.17
2018-07-10T23:39:48.975Z,2.50
2018-07-10T23:42:05.134Z,2.50
2018-07-10T23:44:17.634Z,3.77
2018-07-10T23:46:35.529Z,2.23
2018-07-10T23:48:50.065Z,1.70
2018-07-10T23:51:02.563Z,2.40
2018-07-10T23:53:29.054Z,3.47
2018-07-10T23:55:41.668Z,2.27
2018-07-10T23:57:54.288Z,2.53
